Virtual Norwegian is not affiliated with Norwegian Air Shuttle in any way.
If you are looking for the real "Norwegian", or you wish to book Norwegian flights, please visit Norwegian.com


We use cookies to ensure you get the best experience on our website.   ACCEPT

LGIR - HER - Heraklion (Nikos Kazantzakis)

General Info Alternate Airport
ICAO: LGIR Elevation: 115 ft ICAO: LGSA
IATA: HER Country: Greece IATA: CHQ
City: Heraklion Charts: Log in to view charts City: Chania
Name: Nikos Kazantzakis Hub: No Name Ioannis Daskalogiannis
General Info
ICAO: LGIR
IATA: HER
City: Heraklion
Name: Nikos Kazantzakis
Elevation: 115 ft
Country: Greece
Charts: Log in to view charts
Hub: No
 
Alternate Airport
ICAO: LGSA
IATA: CHQ
City: Chania
Name: Ioannis Daskalogiannis

Weather
160720Z 34007KT 9999 FEW020 16/11 Q1020 NOSIG
Weather
160720Z 34007KT 9999 FEW020 16/11 Q1020 NOSIG

Runway Info
09
Length ILS/LOC Heading
2714 m N/A 095
12
Length ILS/LOC Heading
1566 m N/A 126
27
Length ILS/LOC Heading
2714 m N/A 275
30
Length ILS/LOC Heading
1566 m N/A 306

NOTAMs
NOTAMs currently unavailable.
NOTAMs
NOTAMs currently unavailable

Route map
Airport
Airport (hub)